Time;durP1;ratioP1;P1;durP2;ratioP2;P2;SDS_P1;SDS_P2;PMS_P1;PMS_P2;Temp;Humidity;BMP_temperature;BMP_pressure;BME280_temperature;BME280_humidity;BME280_pressure;Samples;Min_cycle;Max_cycle;Signal;HPM_P1;HPM_P2
2022/12/29 00:01:55;;;;;;;;;;;11.10;99.90;;;;;;5029397;28;19929;-74
2022/12/29 00:04:25;;;;;;;;;;;11.00;99.90;;;;;;5029081;28;20077;-75
2022/12/29 00:06:53;;;;;;;;;;;11.10;99.90;;;;;;5028388;28;19925;-74
2022/12/29 00:09:20;;;;;;;;;;;11.20;99.90;;;;;;5031447;28;19931;-74
2022/12/29 00:11:47;;;;;;;;;;;11.10;99.90;;;;;;5032247;28;19925;-74
2022/12/29 00:16:59;;;;;;;;;;;11.30;99.90;;;;;;5029748;28;19947;-75
2022/12/29 00:35:55;;;;;;;;;;;11.30;99.90;;;;;;5034549;28;19931;-74
2022/12/29 00:44:07;;;;;;;;;;;11.50;99.90;;;;;;5035397;28;20673;-74
2022/12/29 00:46:34;;;;;;;;;;;11.50;99.90;;;;;;5033458;28;19940;-72
2022/12/29 00:51:45;;;;;;;;;;;11.50;99.90;;;;;;5032616;28;20518;-74
2022/12/29 00:54:13;;;;;;;;;;;11.50;99.90;;;;;;5032933;28;20004;-73
2022/12/29 00:56:40;;;;;;;;;;;11.50;99.90;;;;;;5027972;28;19933;-73
2022/12/29 00:59:08;;;;;;;;;;;11.50;99.90;;;;;;5029481;28;20372;-73
2022/12/29 01:01:35;;;;;;;;;;;11.50;99.90;;;;;;5032158;28;20011;-75
2022/12/29 01:04:02;;;;;;;;;;;11.60;99.90;;;;;;5028328;28;19939;-74
2022/12/29 01:06:29;;;;;;;;;;;11.50;99.90;;;;;;5032682;28;20024;-74
2022/12/29 01:11:38;;;;;;;;;;;11.40;99.90;;;;;;5030469;28;19944;-74
2022/12/29 01:14:05;;;;;;;;;;;11.40;99.90;;;;;;5036534;28;20136;-74
2022/12/29 01:16:32;;;;;;;;;;;11.50;99.90;;;;;;5036781;28;19939;-74
2022/12/29 01:18:58;;;;;;;;;;;11.40;99.90;;;;;;5033295;28;20357;-75
2022/12/29 01:21:25;;;;;;;;;;;11.40;99.90;;;;;;5039663;28;20252;-75
2022/12/29 01:23:52;;;;;;;;;;;11.30;99.90;;;;;;5037881;28;19939;-75
2022/12/29 01:26:19;;;;;;;;;;;11.30;99.90;;;;;;5037195;28;19933;-74
2022/12/29 01:28:47;;;;;;;;;;;11.30;99.90;;;;;;5034967;28;19928;-74
2022/12/29 01:31:14;;;;;;;;;;;11.10;99.90;;;;;;5033163;28;19933;-75
2022/12/29 01:33:42;;;;;;;;;;;11.00;99.90;;;;;;5036340;28;19943;-74
2022/12/29 01:36:10;;;;;;;;;;;11.00;99.90;;;;;;5032053;28;19933;-73
2022/12/29 01:38:37;;;;;;;;;;;11.00;99.90;;;;;;5033532;28;19932;-74
2022/12/29 01:41:04;;;;;;;;;;;11.00;99.90;;;;;;5034281;28;20387;-74
2022/12/29 01:43:40;;;;;;;;;;;11.00;99.90;;;;;;5036498;28;19929;-75
2022/12/29 01:46:14;;;;;;;;;;;11.10;99.90;;;;;;5035859;28;20388;-73
2022/12/29 01:48:41;;;;;;;;;;;11.10;99.90;;;;;;5038387;28;20434;-74
2022/12/29 01:51:08;;;;;;;;;;;11.10;99.90;;;;;;5035217;28;19941;-75
2022/12/29 01:53:35;;;;;;;;;;;11.10;99.90;;;;;;5037516;28;19968;-75
2022/12/29 01:56:05;;;;;;;;;;;11.00;99.90;;;;;;5037080;28;19932;-74
2022/12/29 01:58:34;;;;;;;;;;;11.00;99.90;;;;;;5032625;28;19925;-74
2022/12/29 02:01:01;;;;;;;;;;;10.90;99.90;;;;;;5033719;28;20515;-73
2022/12/29 02:03:31;;;;;;;;;;;10.90;99.90;;;;;;5036655;28;19968;-74
2022/12/29 02:06:00;;;;;;;;;;;10.80;99.90;;;;;;5030177;28;19932;-76
2022/12/29 02:08:28;;;;;;;;;;;10.90;99.90;;;;;;5032919;28;19933;-75
2022/12/29 02:10:56;;;;;;;;;;;10.80;99.90;;;;;;5034293;28;20277;-75
2022/12/29 02:13:24;;;;;;;;;;;10.80;99.90;;;;;;5034791;28;19924;-75
2022/12/29 02:15:56;;;;;;;;;;;10.80;99.90;;;;;;5036452;28;20578;-74
2022/12/29 02:18:29;;;;;;;;;;;10.70;99.90;;;;;;5036999;28;19933;-75
2022/12/29 02:21:05;;;;;;;;;;;10.80;99.90;;;;;;5032342;28;20399;-75
2022/12/29 02:23:39;;;;;;;;;;;10.80;99.90;;;;;;5030987;28;20464;-75
2022/12/29 02:26:14;;;;;;;;;;;10.80;99.90;;;;;;5031324;28;20027;-74
2022/12/29 02:28:58;;;;;;;;;;;10.70;99.90;;;;;;5028904;28;20014;-74
2022/12/29 02:31:29;;;;;;;;;;;10.70;99.90;;;;;;5025607;28;20023;-74
2022/12/29 02:34:01;;;;;;;;;;;10.60;99.90;;;;;;5035460;28;19925;-74
2022/12/29 02:36:32;;;;;;;;;;;10.60;99.90;;;;;;5031740;28;20027;-75
2022/12/29 02:39:03;;;;;;;;;;;10.50;99.90;;;;;;5034979;28;19940;-75
2022/12/29 02:41:34;;;;;;;;;;;10.50;99.90;;;;;;5032435;28;19933;-75
2022/12/29 02:44:05;;;;;;;;;;;10.50;99.90;;;;;;5030897;28;20332;-75
2022/12/29 02:46:36;;;;;;;;;;;10.50;99.90;;;;;;5033014;28;19933;-75
2022/12/29 02:49:06;;;;;;;;;;;10.50;99.90;;;;;;5033004;28;20302;-75
2022/12/29 02:51:36;;;;;;;;;;;10.50;99.90;;;;;;5033354;28;19937;-74
2022/12/29 02:56:48;;;;;;;;;;;10.40;99.90;;;;;;5033731;28;20001;-74
2022/12/29 02:59:15;;;;;;;;;;;10.50;99.90;;;;;;5032734;28;19933;-74
2022/12/29 03:04:36;;;;;;;;;;;10.50;99.90;;;;;;5034021;28;19940;-73
2022/12/29 03:07:05;;;;;;;;;;;10.40;99.90;;;;;;5032052;28;19939;-74
2022/12/29 03:09:37;;;;;;;;;;;10.40;99.90;;;;;;5036005;28;20531;-73
2022/12/29 03:12:09;;;;;;;;;;;10.40;99.90;;;;;;5029811;28;19929;-74
2022/12/29 03:17:31;;;;;;;;;;;10.30;99.90;;;;;;5033852;28;20066;-74
2022/12/29 03:20:00;;;;;;;;;;;10.20;99.90;;;;;;5035179;28;20028;-74
2022/12/29 03:22:31;;;;;;;;;;;10.20;99.90;;;;;;5032857;28;19939;-75
2022/12/29 03:25:00;;;;;;;;;;;10.20;99.90;;;;;;5035918;28;19948;-73
2022/12/29 03:27:29;;;;;;;;;;;10.20;99.90;;;;;;5031739;28;19928;-73
2022/12/29 03:29:58;;;;;;;;;;;10.20;99.90;;;;;;5034886;28;19933;-74
2022/12/29 03:32:29;;;;;;;;;;;10.10;99.90;;;;;;5028150;28;20015;-74
2022/12/29 03:34:56;;;;;;;;;;;10.10;99.90;;;;;;5033882;28;19928;-74
2022/12/29 03:37:24;;;;;;;;;;;10.10;99.90;;;;;;5028389;28;19948;-74
2022/12/29 03:39:52;;;;;;;;;;;10.10;99.90;;;;;;5029732;28;20459;-74
2022/12/29 03:42:20;;;;;;;;;;;10.10;99.90;;;;;;5028509;28;20035;-74
2022/12/29 03:44:47;;;;;;;;;;;10.10;99.90;;;;;;5029002;28;20309;-74
2022/12/29 03:47:15;;;;;;;;;;;10.10;99.90;;;;;;5031508;28;20020;-74
2022/12/29 03:49:43;;;;;;;;;;;10.10;99.90;;;;;;5035318;28;19925;-75
2022/12/29 03:52:09;;;;;;;;;;;10.10;99.90;;;;;;5032591;28;19933;-73
2022/12/29 03:54:36;;;;;;;;;;;10.10;99.90;;;;;;5033993;28;19931;-74
2022/12/29 03:57:03;;;;;;;;;;;10.10;99.90;;;;;;5030148;28;20487;-74
2022/12/29 03:59:29;;;;;;;;;;;10.00;99.90;;;;;;5031930;28;19924;-74
2022/12/29 04:01:56;;;;;;;;;;;10.00;99.90;;;;;;5026928;28;20315;-74
2022/12/29 04:04:23;;;;;;;;;;;10.00;99.90;;;;;;5029636;28;19932;-74
2022/12/29 04:06:51;;;;;;;;;;;10.00;99.90;;;;;;5027872;28;20019;-74
2022/12/29 04:09:18;;;;;;;;;;;10.00;99.90;;;;;;5031612;28;19929;-74
2022/12/29 04:11:44;;;;;;;;;;;9.90;99.90;;;;;;5035379;28;19935;-74
2022/12/29 04:14:11;;;;;;;;;;;9.90;99.90;;;;;;5035678;28;20020;-74
2022/12/29 04:16:38;;;;;;;;;;;10.00;99.90;;;;;;5031880;28;19929;-75
2022/12/29 04:19:07;;;;;;;;;;;9.90;99.90;;;;;;5029684;28;19933;-74
2022/12/29 04:21:33;;;;;;;;;;;9.80;99.90;;;;;;5032451;28;20011;-75
2022/12/29 04:24:01;;;;;;;;;;;9.80;99.90;;;;;;5031044;28;19928;-74
2022/12/29 04:26:28;;;;;;;;;;;9.80;99.90;;;;;;5029484;28;20008;-74
2022/12/29 04:28:55;;;;;;;;;;;9.90;99.90;;;;;;5028943;28;19943;-74
2022/12/29 04:31:21;;;;;;;;;;;9.90;99.90;;;;;;5027492;28;19933;-75
2022/12/29 04:33:48;;;;;;;;;;;9.90;99.90;;;;;;5031430;28;19933;-75
2022/12/29 04:36:15;;;;;;;;;;;9.90;99.90;;;;;;5031054;28;19925;-75
2022/12/29 04:38:42;;;;;;;;;;;10.00;99.90;;;;;;5027771;28;19933;-75
2022/12/29 04:41:09;;;;;;;;;;;10.10;99.90;;;;;;5032535;28;19928;-74
2022/12/29 04:43:36;;;;;;;;;;;10.10;99.90;;;;;;5032846;28;20421;-75
2022/12/29 04:46:03;;;;;;;;;;;10.20;99.90;;;;;;5032680;28;20319;-74
2022/12/29 04:48:29;;;;;;;;;;;10.20;99.90;;;;;;5032978;28;20015;-74
2022/12/29 04:50:56;;;;;;;;;;;10.10;99.90;;;;;;5029391;28;19929;-74
2022/12/29 04:53:23;;;;;;;;;;;10.10;99.90;;;;;;5032480;28;19939;-74
2022/12/29 04:56:08;;;;;;;;;;;10.10;99.90;;;;;;5028873;28;19929;-74
2022/12/29 04:58:37;;;;;;;;;;;10.10;99.90;;;;;;5031221;28;20361;-72
2022/12/29 05:01:04;;;;;;;;;;;10.10;99.90;;;;;;5034017;28;19933;-73
2022/12/29 05:03:30;;;;;;;;;;;10.10;99.90;;;;;;5031516;28;20011;-73
2022/12/29 05:05:58;;;;;;;;;;;10.10;99.90;;;;;;5031882;28;19929;-72
2022/12/29 05:08:24;;;;;;;;;;;10.10;99.90;;;;;;5032641;28;19939;-75
2022/12/29 05:10:51;;;;;;;;;;;10.00;99.90;;;;;;5031747;28;19933;-73
2022/12/29 05:13:18;;;;;;;;;;;10.10;99.90;;;;;;5032631;28;21986;-73
2022/12/29 05:15:48;;;;;;;;;;;10.10;99.90;;;;;;5034332;28;19933;-73
2022/12/29 05:18:15;;;;;;;;;;;10.20;99.90;;;;;;5029120;28;19942;-73
2022/12/29 05:20:41;;;;;;;;;;;10.10;99.90;;;;;;5028797;28;20035;-74
2022/12/29 05:23:08;;;;;;;;;;;10.10;99.90;;;;;;5031129;28;20016;-74
2022/12/29 05:25:35;;;;;;;;;;;10.10;99.90;;;;;;5029386;28;19933;-74
2022/12/29 05:28:01;;;;;;;;;;;10.10;99.90;;;;;;5026215;28;22953;-73
2022/12/29 05:30:28;;;;;;;;;;;10.10;99.90;;;;;;5028474;28;19933;-74
2022/12/29 05:32:56;;;;;;;;;;;10.10;99.90;;;;;;5030531;28;20031;-74
2022/12/29 05:35:23;;;;;;;;;;;10.10;99.90;;;;;;5029224;28;19933;-74
2022/12/29 05:37:49;;;;;;;;;;;10.10;99.90;;;;;;5030316;28;19929;-74
2022/12/29 05:40:16;;;;;;;;;;;10.10;99.90;;;;;;5031047;28;20007;-74
2022/12/29 05:42:43;;;;;;;;;;;10.10;99.90;;;;;;5026969;28;19929;-75
2022/12/29 05:45:10;;;;;;;;;;;10.10;99.90;;;;;;5028924;28;20423;-74
2022/12/29 05:47:36;;;;;;;;;;;10.10;99.90;;;;;;5031847;28;19933;-74
2022/12/29 05:50:05;;;;;;;;;;;10.10;99.90;;;;;;5031055;28;19939;-73
2022/12/29 05:52:31;;;;;;;;;;;10.10;99.90;;;;;;5029275;28;20029;-73
2022/12/29 05:54:58;;;;;;;;;;;10.10;99.90;;;;;;5025653;28;19939;-73
2022/12/29 05:57:25;;;;;;;;;;;10.10;99.90;;;;;;5031230;28;19944;-73
2022/12/29 05:59:51;;;;;;;;;;;10.10;99.90;;;;;;5032054;28;20028;-73
2022/12/29 06:02:18;;;;;;;;;;;10.20;99.90;;;;;;5033567;28;20008;-73
2022/12/29 06:04:45;;;;;;;;;;;10.10;99.90;;;;;;5033065;28;20002;-73
2022/12/29 06:07:13;;;;;;;;;;;10.10;99.90;;;;;;5031847;28;20027;-74
2022/12/29 06:09:40;;;;;;;;;;;10.10;99.90;;;;;;5030884;28;19933;-73
2022/12/29 06:12:06;;;;;;;;;;;10.10;99.90;;;;;;5033354;28;19956;-73
2022/12/29 06:14:33;;;;;;;;;;;10.10;99.90;;;;;;5038464;28;19933;-74
2022/12/29 06:17:00;;;;;;;;;;;10.20;99.90;;;;;;5032926;28;20291;-74
2022/12/29 06:19:26;;;;;;;;;;;10.20;99.90;;;;;;5034054;28;19939;-73
2022/12/29 06:21:53;;;;;;;;;;;10.20;99.90;;;;;;5045131;28;20027;-73
2022/12/29 06:24:21;;;;;;;;;;;10.20;99.90;;;;;;5058863;28;19957;-74
2022/12/29 06:26:48;;;;;;;;;;;10.10;99.90;;;;;;5052468;28;20019;-74
2022/12/29 06:29:16;;;;;;;;;;;10.10;99.90;;;;;;5053900;28;19925;-72
2022/12/29 06:31:45;;;;;;;;;;;10.20;99.90;;;;;;5047338;28;20035;-73
2022/12/29 06:34:12;;;;;;;;;;;10.20;99.90;;;;;;5049073;28;20003;-73
2022/12/29 06:36:38;;;;;;;;;;;10.20;99.90;;;;;;5036077;28;20027;-73
2022/12/29 06:39:05;;;;;;;;;;;10.30;99.90;;;;;;5031004;28;19926;-72
2022/12/29 06:41:33;;;;;;;;;;;10.30;99.90;;;;;;5032727;28;19945;-72
2022/12/29 06:44:00;;;;;;;;;;;10.20;99.90;;;;;;5034083;28;19935;-72
2022/12/29 06:46:29;;;;;;;;;;;10.20;99.90;;;;;;5031733;28;20011;-73
2022/12/29 06:48:56;;;;;;;;;;;10.20;99.90;;;;;;5036120;28;20324;-73
2022/12/29 06:51:22;;;;;;;;;;;10.30;99.90;;;;;;5035751;28;19956;-72
2022/12/29 06:53:50;;;;;;;;;;;10.30;99.90;;;;;;5034517;28;19932;-73
2022/12/29 06:56:16;;;;;;;;;;;10.30;99.90;;;;;;5032475;28;19928;-71
2022/12/29 06:58:44;;;;;;;;;;;10.30;99.90;;;;;;5035279;28;20449;-71
2022/12/29 07:01:11;;;;;;;;;;;10.30;99.90;;;;;;5033644;28;20379;-72
2022/12/29 07:03:38;;;;;;;;;;;10.30;99.90;;;;;;5033639;28;22002;-70
2022/12/29 07:06:05;;;;;;;;;;;10.30;99.90;;;;;;5033306;28;19929;-70
2022/12/29 07:08:32;;;;;;;;;;;10.20;99.90;;;;;;5031441;28;20295;-70
2022/12/29 07:10:59;;;;;;;;;;;10.30;99.90;;;;;;5029110;28;19939;-70
2022/12/29 07:13:25;;;;;;;;;;;10.30;99.90;;;;;;5035819;28;20404;-72
2022/12/29 07:15:53;;;;;;;;;;;10.30;99.90;;;;;;5034536;28;20341;-70
2022/12/29 07:18:20;;;;;;;;;;;10.40;99.90;;;;;;5034523;28;19928;-70
2022/12/29 07:20:46;;;;;;;;;;;10.40;99.90;;;;;;5033055;28;19944;-69
2022/12/29 07:23:13;;;;;;;;;;;10.40;99.90;;;;;;5033819;28;20032;-70
2022/12/29 07:25:41;;;;;;;;;;;10.40;99.90;;;;;;5035606;28;20028;-69
2022/12/29 07:28:08;;;;;;;;;;;10.40;99.90;;;;;;5030481;28;20012;-70
2022/12/29 07:30:37;;;;;;;;;;;10.40;99.90;;;;;;5032806;28;19925;-70
2022/12/29 07:33:05;;;;;;;;;;;10.40;99.90;;;;;;5030499;28;19933;-71
2022/12/29 07:35:32;;;;;;;;;;;10.40;99.90;;;;;;5034876;28;19933;-72
2022/12/29 07:37:58;;;;;;;;;;;10.40;99.90;;;;;;5031356;28;20015;-71
2022/12/29 07:40:26;;;;;;;;;;;10.40;99.90;;;;;;5032661;28;20004;-71
2022/12/29 07:42:52;;;;;;;;;;;10.40;99.90;;;;;;5032153;28;19939;-72
2022/12/29 07:45:19;;;;;;;;;;;10.40;99.90;;;;;;5036788;28;20446;-71
2022/12/29 07:47:48;;;;;;;;;;;10.50;99.90;;;;;;5031807;28;19929;-71
2022/12/29 07:50:16;;;;;;;;;;;10.40;99.90;;;;;;5029947;28;19943;-69
2022/12/29 07:52:43;;;;;;;;;;;10.40;99.90;;;;;;5030157;28;19933;-71
2022/12/29 07:55:09;;;;;;;;;;;10.40;99.90;;;;;;5037181;28;19929;-73
2022/12/29 07:57:36;;;;;;;;;;;10.50;99.90;;;;;;5033514;28;20043;-70
2022/12/29 08:00:04;;;;;;;;;;;10.50;99.90;;;;;;5033324;28;19932;-73
2022/12/29 08:02:31;;;;;;;;;;;10.50;99.90;;;;;;5030966;28;20391;-74
2022/12/29 08:04:57;;;;;;;;;;;10.50;99.90;;;;;;5031548;28;19932;-75
2022/12/29 08:07:25;;;;;;;;;;;10.60;99.90;;;;;;5030641;28;19933;-74
2022/12/29 08:09:52;;;;;;;;;;;10.50;99.90;;;;;;5031080;28;19951;-75
2022/12/29 08:12:19;;;;;;;;;;;10.50;99.90;;;;;;5038386;28;19933;-75
2022/12/29 08:14:46;;;;;;;;;;;10.50;99.90;;;;;;5029525;28;19929;-76
2022/12/29 08:17:12;;;;;;;;;;;10.50;99.90;;;;;;5031145;28;20023;-75
2022/12/29 08:19:39;;;;;;;;;;;10.50;99.90;;;;;;5035794;28;19935;-75
2022/12/29 08:22:06;;;;;;;;;;;10.50;99.90;;;;;;5030859;28;20304;-75
2022/12/29 08:24:34;;;;;;;;;;;10.40;99.90;;;;;;5033057;28;19968;-75
2022/12/29 08:27:01;;;;;;;;;;;10.40;99.90;;;;;;5022644;28;19933;-77
2022/12/29 08:29:28;;;;;;;;;;;10.40;99.90;;;;;;5026582;28;20047;-75
2022/12/29 08:31:55;;;;;;;;;;;10.40;99.90;;;;;;5031922;28;20599;-74
2022/12/29 08:34:22;;;;;;;;;;;10.40;99.90;;;;;;5032354;28;21234;-76
2022/12/29 08:36:49;;;;;;;;;;;10.40;99.90;;;;;;5033331;28;19978;-75
2022/12/29 08:39:15;;;;;;;;;;;10.40;99.90;;;;;;5029928;28;20034;-76
2022/12/29 08:41:45;;;;;;;;;;;10.40;99.90;;;;;;5023605;28;20966;-76
2022/12/29 08:44:12;;;;;;;;;;;10.40;99.90;;;;;;5027130;28;19939;-75
2022/12/29 08:46:38;;;;;;;;;;;10.40;99.90;;;;;;5025671;28;19965;-76
2022/12/29 08:49:05;;;;;;;;;;;10.30;99.90;;;;;;5029301;28;19925;-75
2022/12/29 08:51:32;;;;;;;;;;;10.20;99.90;;;;;;5026846;28;19936;-74
2022/12/29 08:53:59;;;;;;;;;;;10.10;99.90;;;;;;5027460;28;19933;-74
2022/12/29 08:56:26;;;;;;;;;;;10.10;99.90;;;;;;5027872;28;20024;-76
2022/12/29 08:58:54;;;;;;;;;;;10.00;99.90;;;;;;5027139;28;20711;-75
2022/12/29 09:01:22;;;;;;;;;;;10.00;99.90;;;;;;5024304;28;20026;-75
2022/12/29 09:03:48;;;;;;;;;;;9.90;99.90;;;;;;5027418;28;20396;-76
2022/12/29 09:06:16;;;;;;;;;;;10.00;99.90;;;;;;5026472;28;19941;-76
2022/12/29 09:08:43;;;;;;;;;;;9.90;99.90;;;;;;5029088;28;19925;-76
2022/12/29 09:11:11;;;;;;;;;;;9.90;99.90;;;;;;5026020;28;20092;-76
2022/12/29 09:13:37;;;;;;;;;;;9.90;99.90;;;;;;5030050;28;19929;-75
2022/12/29 09:16:05;;;;;;;;;;;9.80;99.90;;;;;;5028748;28;19933;-76
2022/12/29 09:18:32;;;;;;;;;;;9.70;99.90;;;;;;5026464;28;19976;-76
2022/12/29 09:21:00;;;;;;;;;;;9.80;99.90;;;;;;5027341;28;19931;-76
2022/12/29 09:23:27;;;;;;;;;;;9.80;99.90;;;;;;5026554;28;19929;-75
2022/12/29 09:25:54;;;;;;;;;;;9.70;99.90;;;;;;5027379;28;20698;-75
2022/12/29 09:28:22;;;;;;;;;;;9.60;99.90;;;;;;5022198;28;20976;-74
2022/12/29 09:30:49;;;;;;;;;;;9.60;99.90;;;;;;5026514;28;19940;-74
2022/12/29 09:33:17;;;;;;;;;;;9.50;99.90;;;;;;5025587;28;19933;-75
2022/12/29 09:35:44;;;;;;;;;;;9.50;99.90;;;;;;5031502;28;19936;-75
2022/12/29 09:38:11;;;;;;;;;;;9.50;99.90;;;;;;5031029;28;20653;-78
2022/12/29 09:40:38;;;;;;;;;;;9.60;99.90;;;;;;5030699;28;19999;-75
2022/12/29 09:43:23;;;;;;;;;;;9.60;99.90;;;;;;5025267;28;19933;-75
2022/12/29 09:45:53;;;;;;;;;;;9.70;99.90;;;;;;5030458;28;20015;-69
2022/12/29 09:48:24;;;;;;;;;;;9.80;99.90;;;;;;5029919;28;19924;-71
2022/12/29 09:50:53;;;;;;;;;;;9.80;99.90;;;;;;5032090;28;19933;-75
2022/12/29 09:53:22;;;;;;;;;;;9.70;99.90;;;;;;5029985;28;20024;-75
2022/12/29 09:55:50;;;;;;;;;;;9.50;99.90;;;;;;5030106;28;20047;-75
2022/12/29 09:58:21;;;;;;;;;;;9.50;99.90;;;;;;5026231;28;19925;-74
2022/12/29 10:00:50;;;;;;;;;;;9.50;99.90;;;;;;5030597;28;20517;-75
2022/12/29 10:03:17;;;;;;;;;;;9.60;99.90;;;;;;5027173;28;20450;-75
2022/12/29 10:05:50;;;;;;;;;;;9.70;99.90;;;;;;5026728;28;19929;-74
2022/12/29 10:08:24;;;;;;;;;;;9.80;99.90;;;;;;5031330;28;19924;-75
2022/12/29 10:10:54;;;;;;;;;;;9.90;99.90;;;;;;5034368;28;19929;-77
2022/12/29 10:13:27;;;;;;;;;;;10.00;99.90;;;;;;5030687;28;20012;-75
2022/12/29 10:15:58;;;;;;;;;;;10.10;99.90;;;;;;5028819;28;19925;-76
2022/12/29 10:18:33;;;;;;;;;;;10.10;99.90;;;;;;5027858;28;19933;-78
2022/12/29 10:21:06;;;;;;;;;;;10.00;99.90;;;;;;5033966;28;19987;-74
2022/12/29 10:23:34;;;;;;;;;;;10.10;99.90;;;;;;5030355;28;19929;-73
2022/12/29 10:26:02;;;;;;;;;;;10.10;99.90;;;;;;5028671;28;19978;-73
2022/12/29 10:28:34;;;;;;;;;;;10.10;99.90;;;;;;5028762;28;20509;-74
2022/12/29 10:31:03;;;;;;;;;;;10.10;99.90;;;;;;5028886;28;19925;-74
2022/12/29 10:33:32;;;;;;;;;;;10.10;99.90;;;;;;5030716;28;20029;-74
2022/12/29 10:35:59;;;;;;;;;;;10.10;99.90;;;;;;5032445;28;20043;-72
2022/12/29 10:38:30;;;;;;;;;;;10.20;99.90;;;;;;5026542;28;19968;-74
2022/12/29 10:40:59;;;;;;;;;;;10.40;99.90;;;;;;5034301;28;19933;-73
2022/12/29 10:43:27;;;;;;;;;;;10.50;99.90;;;;;;5025715;28;19936;-75
2022/12/29 10:45:55;;;;;;;;;;;10.50;99.90;;;;;;5024776;28;20411;-75
2022/12/29 10:48:23;;;;;;;;;;;10.60;99.90;;;;;;5029990;28;19925;-75
2022/12/29 10:50:51;;;;;;;;;;;10.60;99.90;;;;;;5027036;28;19933;-74
2022/12/29 10:53:19;;;;;;;;;;;10.70;99.90;;;;;;5025056;28;19925;-75
2022/12/29 10:55:48;;;;;;;;;;;10.60;99.90;;;;;;5029570;28;19971;-73
2022/12/29 10:58:15;;;;;;;;;;;10.60;99.90;;;;;;5026945;28;20040;-74
2022/12/29 11:00:42;;;;;;;;;;;10.60;99.90;;;;;;5027927;28;19933;-75
2022/12/29 11:03:17;;;;;;;;;;;10.60;99.90;;;;;;5028030;28;20036;-74
2022/12/29 11:05:47;;;;;;;;;;;10.60;99.90;;;;;;5028255;28;20015;-73
2022/12/29 11:08:16;;;;;;;;;;;10.60;99.90;;;;;;5025210;28;20410;-72
2022/12/29 11:10:43;;;;;;;;;;;10.70;99.90;;;;;;5026206;28;19933;-74
2022/12/29 11:13:15;;;;;;;;;;;10.70;99.90;;;;;;5029090;28;21055;-73
2022/12/29 11:15:43;;;;;;;;;;;10.70;99.90;;;;;;5025693;28;19933;-73
2022/12/29 11:18:21;;;;;;;;;;;10.70;99.90;;;;;;5024421;28;19952;-73
2022/12/29 11:20:48;;;;;;;;;;;10.70;99.90;;;;;;5025207;28;19940;-73
2022/12/29 11:23:23;;;;;;;;;;;10.70;99.90;;;;;;5029148;28;19945;-72
2022/12/29 11:26:05;;;;;;;;;;;10.70;99.90;;;;;;5023646;28;20051;-74
2022/12/29 11:28:34;;;;;;;;;;;10.60;99.90;;;;;;5021305;28;20355;-74
2022/12/29 11:31:01;;;;;;;;;;;10.60;99.90;;;;;;5023370;28;19939;-73
2022/12/29 11:33:28;;;;;;;;;;;10.70;99.90;;;;;;5018641;28;20023;-73
2022/12/29 11:35:58;;;;;;;;;;;10.60;99.90;;;;;;5022202;28;19929;-75
2022/12/29 11:38:26;;;;;;;;;;;10.70;99.90;;;;;;5024841;28;19929;-74
2022/12/29 11:40:53;;;;;;;;;;;10.70;99.90;;;;;;5028182;28;19929;-75
2022/12/29 11:43:22;;;;;;;;;;;10.70;99.90;;;;;;5023767;28;19943;-71
2022/12/29 11:45:53;;;;;;;;;;;10.60;99.90;;;;;;5026087;28;20403;-72
2022/12/29 11:48:21;;;;;;;;;;;10.60;99.90;;;;;;5025257;28;19964;-73
2022/12/29 11:50:51;;;;;;;;;;;10.60;99.90;;;;;;5029514;28;20012;-73
2022/12/29 11:53:21;;;;;;;;;;;10.60;99.90;;;;;;5024392;28;23590;-73
2022/12/29 11:55:52;;;;;;;;;;;10.60;99.90;;;;;;5026932;28;19935;-73
2022/12/29 11:58:19;;;;;;;;;;;10.50;99.90;;;;;;5024818;28;19933;-72
2022/12/29 12:00:46;;;;;;;;;;;10.50;99.90;;;;;;5026077;28;19933;-74
2022/12/29 12:03:17;;;;;;;;;;;10.50;99.90;;;;;;5023978;28;19933;-75
2022/12/29 12:05:50;;;;;;;;;;;10.50;99.90;;;;;;5027119;28;19925;-75
2022/12/29 12:08:19;;;;;;;;;;;10.50;99.90;;;;;;5024531;28;20252;-75
2022/12/29 12:10:49;;;;;;;;;;;10.40;99.90;;;;;;5027910;28;19928;-72
2022/12/29 12:13:19;;;;;;;;;;;10.50;99.90;;;;;;5025431;28;19929;-73
2022/12/29 12:15:48;;;;;;;;;;;10.50;99.90;;;;;;5023215;28;19929;-73
2022/12/29 12:18:19;;;;;;;;;;;10.60;99.90;;;;;;5026747;28;19979;-75
2022/12/29 12:20:47;;;;;;;;;;;10.70;99.90;;;;;;5026179;28;20447;-72
2022/12/29 12:23:20;;;;;;;;;;;10.70;99.90;;;;;;5030321;28;19940;-73
2022/12/29 12:25:52;;;;;;;;;;;10.70;99.90;;;;;;5025680;28;19936;-73
2022/12/29 12:28:21;;;;;;;;;;;10.70;99.90;;;;;;5025005;28;19932;-74
2022/12/29 12:30:49;;;;;;;;;;;10.50;99.90;;;;;;5024334;28;19933;-75
2022/12/29 12:33:23;;;;;;;;;;;10.40;99.90;;;;;;4996585;22;19934;-75
2022/12/29 12:36:07;;;;;;;;;;;10.30;99.90;;;;;;4950055;28;20402;-75
2022/12/29 12:38:40;;;;;;;;;;;10.30;99.90;;;;;;4956347;28;19941;-74
2022/12/29 12:41:10;;;;;;;;;;;10.40;99.90;;;;;;4954665;28;19944;-74
2022/12/29 12:43:45;;;;;;;;;;;10.30;99.90;;;;;;4951998;28;19933;-75
2022/12/29 12:46:35;;;;;;;;;;;10.30;99.90;;;;;;4952138;28;20025;-74
2022/12/29 12:49:17;;;;;;;;;;;10.30;99.90;;;;;;4963036;28;20018;-74
2022/12/29 12:51:48;;;;;;;;;;;10.30;99.90;;;;;;4952297;28;20025;-74
2022/12/29 12:54:22;;;;;;;;;;;10.30;99.90;;;;;;4955262;28;19945;-74
2022/12/29 12:56:55;;;;;;;;;;;10.40;99.90;;;;;;4948267;28;20338;-74
2022/12/29 12:59:31;;;;;;;;;;;10.30;99.90;;;;;;4955223;28;20023;-73
2022/12/29 13:02:01;;;;;;;;;;;10.30;99.90;;;;;;4952145;28;20064;-74
2022/12/29 13:04:43;;;;;;;;;;;10.30;99.90;;;;;;4949498;28;19946;-74
2022/12/29 13:07:17;;;;;;;;;;;10.30;99.90;;;;;;4960976;28;19930;-75
2022/12/29 13:09:49;;;;;;;;;;;10.30;99.90;;;;;;4953909;28;19969;-75
2022/12/29 13:12:23;;;;;;;;;;;10.30;99.90;;;;;;4952907;28;19934;-74
2022/12/29 13:14:54;;;;;;;;;;;10.40;99.90;;;;;;4954400;28;20363;-74
2022/12/29 13:17:25;;;;;;;;;;;10.40;99.90;;;;;;4951175;28;19934;-74
2022/12/29 13:19:55;;;;;;;;;;;10.50;99.90;;;;;;4951731;28;19941;-74
2022/12/29 13:22:26;;;;;;;;;;;10.50;99.90;;;;;;4952983;28;20563;-73
2022/12/29 13:25:05;;;;;;;;;;;10.60;99.90;;;;;;4952495;28;19956;-73
2022/12/29 13:27:36;;;;;;;;;;;10.50;99.90;;;;;;4949856;28;19956;-75
2022/12/29 13:30:05;;;;;;;;;;;10.50;99.90;;;;;;4948508;28;20033;-74
2022/12/29 13:32:38;;;;;;;;;;;10.40;99.90;;;;;;4947866;28;19930;-73
2022/12/29 13:35:11;;;;;;;;;;;10.30;99.90;;;;;;4951586;28;19953;-74
2022/12/29 13:37:47;;;;;;;;;;;10.20;99.90;;;;;;4950404;28;21308;-74
2022/12/29 13:40:16;;;;;;;;;;;10.20;99.90;;;;;;4946659;28;20385;-74
2022/12/29 13:42:44;;;;;;;;;;;10.20;99.90;;;;;;4947559;28;19935;-74
2022/12/29 13:45:13;;;;;;;;;;;10.20;99.90;;;;;;4952389;28;20312;-74
2022/12/29 13:47:41;;;;;;;;;;;10.30;99.90;;;;;;4949665;28;20413;-74
2022/12/29 13:50:13;;;;;;;;;;;10.30;99.90;;;;;;4949943;28;19935;-75
2022/12/29 13:52:45;;;;;;;;;;;10.30;99.90;;;;;;4950696;28;19934;-75
2022/12/29 13:55:20;;;;;;;;;;;10.30;99.90;;;;;;4951323;28;19930;-68
2022/12/29 13:57:50;;;;;;;;;;;10.20;99.90;;;;;;4949411;28;19934;-72
2022/12/29 14:00:17;;;;;;;;;;;10.10;99.90;;;;;;4949517;28;19936;-74
2022/12/29 14:02:52;;;;;;;;;;;10.00;99.90;;;;;;4948539;28;19936;-73
2022/12/29 14:05:28;;;;;;;;;;;9.70;99.90;;;;;;4945693;28;20312;-73
2022/12/29 14:08:00;;;;;;;;;;;9.50;99.90;;;;;;4951610;28;19937;-74
2022/12/29 14:10:29;;;;;;;;;;;9.30;99.90;;;;;;4952177;28;19937;-74
2022/12/29 14:13:01;;;;;;;;;;;9.10;99.90;;;;;;4948415;28;20436;-74
2022/12/29 14:15:27;;;;;;;;;;;8.90;99.90;;;;;;4951660;28;19940;-74
2022/12/29 14:18:03;;;;;;;;;;;8.80;99.90;;;;;;4949915;28;20630;-74
2022/12/29 14:20:33;;;;;;;;;;;8.70;99.90;;;;;;4952380;28;19930;-75
2022/12/29 14:23:02;;;;;;;;;;;8.70;99.90;;;;;;4952142;28;19930;-73
2022/12/29 14:25:47;;;;;;;;;;;8.70;99.90;;;;;;4953542;28;20378;-72
2022/12/29 14:28:16;;;;;;;;;;;8.60;99.90;;;;;;4950186;28;19960;-73
2022/12/29 14:30:50;;;;;;;;;;;8.60;99.90;;;;;;4949643;28;20325;-73
2022/12/29 14:33:17;;;;;;;;;;;8.50;99.90;;;;;;4947214;28;19934;-73
2022/12/29 14:35:45;;;;;;;;;;;8.50;99.90;;;;;;4951361;28;19930;-73
2022/12/29 14:38:27;;;;;;;;;;;8.40;99.90;;;;;;4948402;28;20143;-73
2022/12/29 14:41:14;;;;;;;;;;;8.30;99.90;;;;;;4947103;28;19935;-73
2022/12/29 14:43:51;;;;;;;;;;;8.20;99.90;;;;;;4952688;28;20317;-73
2022/12/29 14:46:18;;;;;;;;;;;8.30;99.90;;;;;;4948437;28;20391;-74
2022/12/29 14:48:45;;;;;;;;;;;8.30;99.90;;;;;;4953495;28;19930;-73
2022/12/29 14:51:28;;;;;;;;;;;8.30;99.90;;;;;;4956508;28;20000;-75
2022/12/29 14:53:55;;;;;;;;;;;8.40;99.90;;;;;;4949966;28;21820;-71
2022/12/29 14:56:25;;;;;;;;;;;8.40;99.90;;;;;;4950556;28;20424;-73
2022/12/29 14:58:54;;;;;;;;;;;8.40;99.90;;;;;;4951722;28;20031;-73
2022/12/29 15:01:25;;;;;;;;;;;8.50;99.90;;;;;;4953801;28;19934;-74
2022/12/29 15:03:54;;;;;;;;;;;8.50;99.90;;;;;;4950787;28;20061;-74
2022/12/29 15:06:29;;;;;;;;;;;8.50;99.90;;;;;;4952481;28;19941;-74
2022/12/29 15:09:01;;;;;;;;;;;8.40;99.90;;;;;;4963932;28;20245;-74